KCHO/CHO METAR and TAF weather

Enter ICAO airport designator
Station Type Date Time Source
KCHO METAR 2020/02/26 08:53 UTC NOAA

KCHO 260853Z AUTO 36003KT 1/4SM FG VV002 10/09 A2984 RMK AO2 SLP101 T01000089 58000


Station Type Date Time Source
KCHO Decoded METAR 2020/02/26 08:53 UTC NOAA

CHARLOTTESVILLE-ALBEMARLE, VA, United States (KCHO) 38-08N 078-27W 192M
Feb 26, 2020 - 03:53 AM EST / 2020.02.26 0853 UTC
Wind: from the N (360 degrees) at 3 MPH (3 KT):0
Visibility: 1/4 mile(s):0
Sky conditions: obscured
Weather: fog
Temperature: 50.0 F (10.0 C)
Dew Point: 48.0 F (8.9 C)
Relative Humidity: 92%
Pressure (altimeter): 29.84 in. Hg (1010 hPa)
Pressure tendency: 0.00 inches (0.0 hPa) lower than three hours ago
ob: KCHO 260853Z AUTO 36003KT 1/4SM FG VV002 10/09 A2984 RMK AO2 SLP101 T01000089 58000
cycle: 9

Station Type Date Time Source
KCHO TAF 2020/02/26 06:42 UTC NOAA

TAF KCHO 260540Z 2606/2706 00000KT 1/2SM FG OVC005
FM261500 VRB03KT 4SM BR BKN003
FM261600 VRB03KT P6SM BKN008
FM270000 16007KT 3SM -SHRA VCTS BKN008 OVC015CB
FM270200 23008KT 5SM -SHRA BR OVC008
FM270300 26008KT P6SM OVC015

Example: see airport list